createdAt,value
2023-01-20T00:01:52.326Z,17.47
2023-01-20T00:04:20.788Z,14.40
2023-01-20T00:06:48.916Z,14.40
2023-01-20T00:09:17.982Z,19.50
2023-01-20T00:11:46.314Z,16.80
2023-01-20T00:14:15.649Z,16.80
2023-01-20T00:16:43.566Z,13.47
2023-01-20T00:19:14.180Z,19.80
2023-01-20T00:21:42.672Z,19.63
2023-01-20T00:24:10.518Z,16.63
2023-01-20T00:26:38.235Z,14.23
2023-01-20T00:29:05.972Z,13.83
2023-01-20T00:31:36.234Z,19.63
2023-01-20T00:34:05.148Z,15.53
2023-01-20T00:36:33.479Z,18.40
2023-01-20T00:39:02.625Z,16.17
2023-01-20T00:41:30.886Z,16.37
2023-01-20T00:43:58.819Z,17.13
2023-01-20T00:46:26.794Z,15.83
2023-01-20T00:48:55.896Z,14.10
2023-01-20T00:51:23.592Z,14.50
2023-01-20T00:53:51.354Z,15.93
2023-01-20T00:56:19.147Z,18.50
2023-01-20T00:58:46.965Z,19.67
2023-01-20T01:01:15.173Z,15.47
2023-01-20T01:03:43.068Z,16.00
2023-01-20T01:06:14.103Z,16.17
2023-01-20T01:08:42.670Z,15.67
2023-01-20T01:11:12.180Z,16.90
2023-01-20T01:13:40.249Z,15.40
2023-01-20T01:16:11.961Z,21.87
2023-01-20T01:18:40.003Z,21.93
2023-01-20T01:21:09.261Z,15.43
2023-01-20T01:23:38.351Z,19.60
2023-01-20T01:26:06.502Z,14.60
2023-01-20T01:28:34.211Z,15.00
2023-01-20T01:31:02.922Z,19.30
2023-01-20T01:33:31.378Z,16.00
2023-01-20T01:35:59.814Z,16.70
2023-01-20T01:38:28.408Z,19.27
2023-01-20T01:40:58.203Z,18.27
2023-01-20T01:43:27.741Z,15.67
2023-01-20T01:45:55.970Z,14.70
2023-01-20T01:48:26.297Z,16.70
2023-01-20T01:50:57.193Z,17.70
2023-01-20T01:53:27.632Z,18.87
2023-01-20T01:56:02.324Z,16.90
2023-01-20T01:58:33.399Z,19.73
2023-01-20T02:01:01.552Z,22.67
2023-01-20T02:03:34.578Z,20.97
2023-01-20T02:06:03.229Z,14.03
2023-01-20T02:08:31.264Z,14.77
2023-01-20T02:11:00.267Z,15.50
2023-01-20T02:13:28.227Z,19.00
2023-01-20T02:16:04.321Z,16.33
2023-01-20T02:18:42.590Z,16.37
2023-01-20T02:21:42.268Z,18.10
2023-01-20T02:24:58.527Z,12.37
2023-01-20T02:27:48.771Z,15.10
2023-01-20T02:30:36.119Z,16.33
2023-01-20T02:33:09.855Z,17.60
2023-01-20T02:35:42.976Z,15.43
2023-01-20T02:38:17.766Z,15.60
2023-01-20T02:40:54.847Z,13.97
2023-01-20T02:43:31.613Z,14.60
2023-01-20T02:46:04.418Z,14.07
2023-01-20T02:48:39.755Z,14.27
2023-01-20T02:51:13.054Z,14.00
2023-01-20T02:53:48.693Z,19.20
2023-01-20T02:56:17.841Z,12.33
2023-01-20T02:58:50.907Z,13.77
2023-01-20T03:01:25.119Z,19.40
2023-01-20T03:03:58.627Z,16.27
2023-01-20T03:06:29.649Z,18.00
2023-01-20T03:09:01.285Z,15.73
2023-01-20T03:11:31.611Z,15.17
2023-01-20T03:14:04.189Z,17.87
2023-01-20T03:16:32.367Z,13.60
2023-01-20T03:19:01.792Z,14.40
2023-01-20T03:21:29.847Z,17.20
2023-01-20T03:24:01.463Z,18.60
2023-01-20T03:26:30.779Z,15.80
2023-01-20T03:28:59.308Z,16.53
2023-01-20T03:31:31.944Z,19.80
2023-01-20T03:34:04.329Z,15.00
2023-01-20T03:36:33.561Z,14.50
2023-01-20T03:39:01.921Z,14.70
2023-01-20T03:41:40.525Z,17.40
2023-01-20T03:44:13.565Z,14.73
2023-01-20T03:46:47.082Z,18.53
2023-01-20T03:49:27.079Z,14.70
2023-01-20T03:52:03.513Z,16.40
2023-01-20T03:54:38.167Z,14.60
2023-01-20T03:57:12.473Z,20.87
2023-01-20T03:59:42.403Z,13.00
2023-01-20T04:02:11.879Z,17.60
2023-01-20T04:04:44.429Z,14.20
2023-01-20T04:07:14.961Z,16.20
2023-01-20T04:09:47.130Z,16.40
2023-01-20T04:12:15.151Z,17.17
2023-01-20T04:14:42.930Z,17.87
2023-01-20T04:17:10.964Z,15.83
2023-01-20T04:19:38.689Z,13.10
2023-01-20T04:22:12.631Z,13.70
2023-01-20T04:24:46.487Z,15.73
2023-01-20T04:27:14.179Z,17.50
2023-01-20T04:29:42.876Z,13.40
2023-01-20T04:32:12.684Z,14.63
2023-01-20T04:34:40.702Z,22.00
2023-01-20T04:37:09.769Z,13.97
2023-01-20T04:39:37.507Z,20.07
2023-01-20T04:42:05.311Z,14.77
2023-01-20T04:44:33.013Z,16.00
2023-01-20T04:47:00.740Z,18.80
2023-01-20T04:49:28.521Z,13.33
2023-01-20T04:51:56.452Z,17.10
2023-01-20T04:54:25.456Z,15.80
2023-01-20T04:56:53.163Z,13.43
2023-01-20T04:59:21.052Z,14.87
2023-01-20T05:01:48.847Z,15.43
2023-01-20T05:04:17.844Z,13.07
2023-01-20T05:06:45.617Z,15.67
2023-01-20T05:09:15.535Z,12.40
2023-01-20T05:11:45.156Z,12.93
2023-01-20T05:14:13.138Z,17.60
2023-01-20T05:16:41.268Z,15.23
2023-01-20T05:19:09.314Z,14.85
2023-01-20T05:21:37.069Z,15.60
2023-01-20T05:24:05.302Z,16.80
2023-01-20T05:26:33.414Z,18.67
2023-01-20T05:29:02.673Z,14.63
2023-01-20T05:31:30.781Z,17.70
2023-01-20T05:33:59.055Z,16.30
2023-01-20T05:36:28.263Z,15.43
2023-01-20T05:38:56.017Z,17.30
2023-01-20T05:41:23.822Z,14.60
2023-01-20T05:43:54.119Z,17.83
2023-01-20T05:46:23.594Z,18.20
2023-01-20T05:48:51.390Z,22.03
2023-01-20T05:51:19.157Z,14.73
2023-01-20T05:53:47.332Z,17.73
2023-01-20T05:56:16.118Z,15.37
2023-01-20T05:58:43.969Z,18.07
2023-01-20T06:01:13.897Z,17.00
2023-01-20T06:03:43.461Z,19.00
2023-01-20T06:06:15.496Z,14.40
2023-01-20T06:08:43.247Z,15.40
2023-01-20T06:11:11.096Z,17.90
2023-01-20T06:13:39.952Z,15.03
2023-01-20T06:16:08.301Z,17.00
2023-01-20T06:18:36.706Z,16.50
2023-01-20T06:21:06.457Z,17.33
2023-01-20T06:23:35.054Z,19.40
2023-01-20T06:26:05.130Z,20.53
2023-01-20T06:28:33.771Z,16.97
2023-01-20T06:31:03.129Z,18.83
2023-01-20T06:33:31.271Z,16.53
2023-01-20T06:35:59.517Z,18.73
2023-01-20T06:38:31.196Z,17.60
2023-01-20T06:40:59.608Z,16.40
2023-01-20T06:43:29.041Z,17.57
2023-01-20T06:46:00.032Z,18.23
2023-01-20T06:48:27.927Z,15.30
2023-01-20T06:51:00.681Z,17.60
2023-01-20T06:53:29.798Z,19.00
2023-01-20T06:55:58.498Z,18.00
2023-01-20T06:58:27.225Z,14.50
2023-01-20T07:00:56.172Z,15.00
2023-01-20T07:03:24.352Z,14.17
2023-01-20T07:05:56.900Z,19.53
2023-01-20T07:08:24.620Z,14.17
2023-01-20T07:10:53.783Z,15.87
2023-01-20T07:13:21.514Z,16.73
2023-01-20T07:15:49.292Z,12.53
2023-01-20T07:18:17.007Z,14.03
2023-01-20T07:20:44.723Z,17.83
2023-01-20T07:23:12.561Z,16.43
2023-01-20T07:25:40.319Z,11.90
2023-01-20T07:28:09.388Z,17.67
2023-01-20T07:30:37.169Z,18.53
2023-01-20T07:33:05.812Z,16.90
2023-01-20T07:35:33.565Z,16.13
2023-01-20T07:38:01.258Z,19.33
2023-01-20T07:40:28.964Z,15.53
2023-01-20T07:42:56.683Z,16.70
2023-01-20T07:45:25.852Z,14.90
2023-01-20T07:47:56.909Z,15.30
2023-01-20T07:50:24.659Z,18.73
2023-01-20T07:52:54.347Z,13.23
2023-01-20T07:55:24.926Z,18.90
2023-01-20T07:57:52.878Z,14.53
2023-01-20T08:00:21.328Z,17.70
2023-01-20T08:02:50.489Z,14.40
2023-01-20T08:05:18.273Z,17.80
2023-01-20T08:07:46.068Z,18.23
2023-01-20T08:10:13.773Z,17.33
2023-01-20T08:12:41.721Z,17.77
2023-01-20T08:15:11.146Z,18.57
2023-01-20T08:17:38.884Z,24.15
2023-01-20T08:20:10.884Z,22.93
2023-01-20T08:22:38.673Z,20.80
2023-01-20T08:25:07.139Z,23.93
2023-01-20T08:27:34.867Z,24.10
2023-01-20T08:30:02.699Z,19.07
2023-01-20T08:32:31.388Z,24.83
2023-01-20T08:34:59.177Z,21.23
2023-01-20T08:37:28.357Z,18.30
2023-01-20T08:39:56.131Z,19.60
2023-01-20T08:42:23.830Z,19.80
2023-01-20T08:44:53.232Z,27.87
2023-01-20T08:47:20.993Z,23.10
2023-01-20T08:49:48.795Z,20.20
2023-01-20T08:52:16.513Z,20.10
2023-01-20T08:54:45.566Z,19.30
2023-01-20T08:57:14.914Z,25.10
2023-01-20T08:59:42.693Z,24.20
2023-01-20T09:02:11.384Z,19.27
2023-01-20T09:04:39.306Z,24.30
2023-01-20T09:07:07.795Z,26.23
2023-01-20T09:09:36.485Z,18.80
2023-01-20T09:12:06.917Z,18.97
2023-01-20T09:14:34.665Z,20.77
2023-01-20T09:17:02.802Z,23.37
2023-01-20T09:19:30.971Z,20.17
2023-01-20T09:21:58.746Z,17.57
2023-01-20T09:24:26.515Z,16.10
2023-01-20T09:26:54.270Z,18.10
2023-01-20T09:29:23.427Z,19.87
2023-01-20T09:31:53.409Z,19.23
2023-01-20T09:34:24.919Z,16.97
2023-01-20T09:36:53.471Z,14.43
2023-01-20T09:39:39.931Z,14.50
2023-01-20T09:42:43.657Z,13.77
2023-01-20T09:45:24.958Z,15.23
2023-01-20T09:48:00.130Z,15.50
2023-01-20T09:50:54.015Z,14.83
2023-01-20T09:53:35.452Z,13.83
2023-01-20T09:56:10.064Z,16.17
2023-01-20T09:58:44.697Z,15.43
2023-01-20T10:01:19.721Z,15.03
2023-01-20T10:03:51.344Z,17.50
2023-01-20T10:06:27.247Z,20.93
2023-01-20T10:09:05.995Z,16.67
2023-01-20T10:11:39.167Z,14.57
2023-01-20T10:14:13.227Z,14.20
2023-01-20T10:16:49.989Z,18.17
2023-01-20T10:19:27.034Z,17.00
2023-01-20T10:22:02.324Z,15.00
2023-01-20T10:24:34.909Z,14.87
2023-01-20T10:27:03.849Z,13.80
2023-01-20T10:29:36.888Z,17.70
2023-01-20T10:32:12.376Z,18.30
2023-01-20T10:34:45.373Z,12.23
2023-01-20T10:37:15.726Z,13.70
2023-01-20T10:39:48.872Z,15.60
2023-01-20T10:42:18.640Z,13.40
2023-01-20T10:44:49.068Z,12.70
2023-01-20T10:47:25.797Z,12.20
2023-01-20T10:50:21.631Z,13.53
2023-01-20T10:53:13.508Z,12.67
2023-01-20T10:55:55.083Z,12.97
2023-01-20T10:58:27.444Z,15.73
2023-01-20T11:00:56.543Z,16.10
2023-01-20T11:03:26.863Z,11.97
2023-01-20T11:05:54.794Z,12.30
2023-01-20T11:08:26.920Z,15.00
2023-01-20T11:10:57.626Z,12.03
2023-01-20T11:13:25.638Z,11.20
2023-01-20T11:15:57.517Z,11.90
2023-01-20T11:18:29.471Z,13.80
2023-01-20T11:21:01.254Z,12.47
2023-01-20T11:23:40.706Z,11.63
2023-01-20T11:26:16.947Z,11.60
2023-01-20T11:28:51.569Z,10.20
2023-01-20T11:31:20.100Z,12.53
2023-01-20T11:34:00.626Z,11.03
2023-01-20T11:36:29.019Z,15.33
2023-01-20T11:38:58.113Z,9.80
2023-01-20T11:41:27.478Z,17.03
2023-01-20T11:43:56.825Z,14.23
2023-01-20T11:46:30.536Z,10.43
2023-01-20T11:49:15.757Z,10.97
2023-01-20T11:51:49.882Z,12.33
2023-01-20T11:54:19.958Z,13.13
2023-01-20T11:56:52.957Z,11.60
2023-01-20T11:59:24.230Z,8.73
2023-01-20T12:01:57.015Z,10.60
2023-01-20T12:05:02.647Z,14.03
2023-01-20T12:07:35.264Z,10.70
2023-01-20T12:10:07.656Z,17.93
2023-01-20T12:12:41.228Z,9.90
2023-01-20T12:15:17.526Z,10.10
2023-01-20T12:17:55.972Z,11.23
2023-01-20T12:20:30.849Z,13.10
2023-01-20T12:23:08.392Z,11.63
2023-01-20T12:25:43.262Z,8.43
2023-01-20T12:28:16.368Z,13.10
2023-01-20T12:30:51.004Z,10.30
2023-01-20T12:33:23.026Z,10.77
2023-01-20T12:36:26.630Z,10.10
2023-01-20T12:39:25.563Z,11.97
2023-01-20T12:42:14.705Z,12.00
2023-01-20T12:44:47.147Z,11.00
2023-01-20T12:47:24.997Z,11.30
2023-01-20T12:50:10.296Z,12.83
2023-01-20T12:52:51.236Z,7.70
2023-01-20T12:55:38.666Z,19.10
2023-01-20T12:58:17.120Z,8.73
2023-01-20T13:01:10.788Z,11.77
2023-01-20T13:04:05.887Z,9.00
2023-01-20T13:07:04.168Z,10.40
2023-01-20T13:09:53.350Z,11.30
2023-01-20T13:12:44.654Z,12.10
2023-01-20T13:15:22.005Z,9.30
2023-01-20T13:18:06.235Z,9.57
2023-01-20T13:20:38.619Z,12.07
2023-01-20T13:23:09.715Z,8.20
2023-01-20T13:25:39.410Z,9.00
2023-01-20T13:28:16.224Z,10.43
2023-01-20T13:30:47.816Z,9.63
2023-01-20T13:33:19.147Z,11.37
2023-01-20T13:35:49.348Z,8.97
2023-01-20T13:38:23.189Z,10.37
2023-01-20T13:40:56.008Z,10.70
2023-01-20T13:43:53.226Z,9.57
2023-01-20T13:46:49.823Z,15.10
2023-01-20T13:49:47.169Z,10.97
2023-01-20T13:52:14.990Z,10.13
2023-01-20T13:54:49.396Z,10.13
2023-01-20T13:57:37.074Z,7.93
2023-01-20T14:00:20.598Z,10.30
2023-01-20T14:02:49.938Z,10.37
2023-01-20T14:05:26.990Z,9.03
2023-01-20T14:07:54.730Z,10.30
2023-01-20T14:10:22.492Z,9.20
2023-01-20T14:12:50.191Z,9.67
2023-01-20T14:15:33.682Z,8.73
2023-01-20T14:18:02.113Z,10.07
2023-01-20T14:20:31.020Z,8.10
2023-01-20T14:23:27.516Z,11.13
2023-01-20T14:26:04.151Z,11.40
2023-01-20T14:28:32.332Z,13.07
2023-01-20T14:31:17.301Z,8.77
2023-01-20T14:33:46.700Z,11.47
2023-01-20T14:36:20.034Z,8.60
2023-01-20T14:38:57.610Z,10.13
2023-01-20T14:41:28.620Z,10.00
2023-01-20T14:43:56.669Z,9.77
2023-01-20T14:46:27.219Z,10.73
2023-01-20T14:48:56.698Z,9.67
2023-01-20T14:51:24.900Z,10.77
2023-01-20T14:54:25.850Z,10.07
2023-01-20T14:56:53.619Z,8.97
2023-01-20T14:59:21.834Z,10.30
2023-01-20T15:01:55.250Z,12.13
2023-01-20T15:04:23.304Z,11.57
2023-01-20T15:06:57.128Z,16.43
2023-01-20T15:09:30.424Z,15.20
2023-01-20T15:12:33.679Z,16.07
2023-01-20T15:15:13.117Z,11.67
2023-01-20T15:18:17.561Z,10.87
2023-01-20T15:20:49.377Z,13.90
2023-01-20T15:23:23.139Z,12.60
2023-01-20T15:25:52.968Z,15.03
2023-01-20T15:28:27.814Z,13.93
2023-01-20T15:30:57.062Z,13.07
2023-01-20T15:33:26.902Z,11.90
2023-01-20T15:35:56.415Z,13.60
2023-01-20T15:38:24.141Z,11.13
2023-01-20T15:40:51.884Z,9.67
2023-01-20T15:43:20.559Z,12.00
2023-01-20T15:45:48.589Z,12.73
2023-01-20T15:48:18.963Z,7.50
2023-01-20T15:50:48.491Z,11.30
2023-01-20T15:53:16.508Z,12.50
2023-01-20T15:55:48.100Z,9.70
2023-01-20T15:58:33.981Z,10.60
2023-01-20T16:01:01.900Z,10.37
2023-01-20T16:03:31.960Z,10.33
2023-01-20T16:06:02.042Z,9.40
2023-01-20T16:08:37.950Z,11.67
2023-01-20T16:11:06.250Z,9.10
2023-01-20T16:13:33.947Z,8.70
2023-01-20T16:16:02.651Z,12.00
2023-01-20T16:18:31.167Z,9.80
2023-01-20T16:20:58.851Z,10.83
2023-01-20T16:23:27.883Z,9.10
2023-01-20T16:25:55.997Z,9.80
2023-01-20T16:28:24.232Z,9.48
2023-01-20T16:30:53.921Z,10.90
2023-01-20T16:33:23.526Z,11.40
2023-01-20T16:35:53.042Z,11.97
2023-01-20T16:38:23.020Z,10.57
2023-01-20T16:40:53.733Z,10.27
2023-01-20T16:43:22.608Z,8.73
2023-01-20T16:45:54.254Z,10.23
2023-01-20T16:48:22.911Z,10.02
2023-01-20T16:50:51.403Z,10.13
2023-01-20T16:53:20.120Z,8.77
2023-01-20T16:55:49.374Z,12.53
2023-01-20T16:58:18.400Z,8.57
2023-01-20T17:00:46.155Z,10.70
2023-01-20T17:03:13.989Z,10.40
2023-01-20T17:05:41.834Z,17.70
2023-01-20T17:08:10.325Z,10.00
2023-01-20T17:10:38.111Z,7.47
2023-01-20T17:13:05.805Z,13.50
2023-01-20T17:15:34.986Z,11.83
2023-01-20T17:18:02.648Z,9.03
2023-01-20T17:20:32.282Z,16.77
2023-01-20T17:23:00.111Z,12.20
2023-01-20T17:25:28.036Z,10.30
2023-01-20T17:27:55.696Z,12.17
2023-01-20T17:30:26.057Z,11.20
2023-01-20T17:32:55.403Z,13.10
2023-01-20T17:35:23.152Z,11.48
2023-01-20T17:37:50.872Z,10.30
2023-01-20T17:40:19.303Z,11.60
2023-01-20T17:42:47.137Z,9.60
2023-01-20T17:45:15.218Z,13.80
2023-01-20T17:47:42.926Z,8.57
2023-01-20T17:50:12.421Z,9.67
2023-01-20T17:52:40.545Z,8.37
2023-01-20T17:55:09.088Z,12.00
2023-01-20T17:57:36.814Z,10.40
2023-01-20T18:00:06.311Z,14.57
2023-01-20T18:02:34.122Z,18.83
2023-01-20T18:05:01.978Z,12.80
2023-01-20T18:07:31.069Z,11.90
2023-01-20T18:09:58.858Z,12.20
2023-01-20T18:12:27.152Z,13.03
2023-01-20T18:14:55.151Z,11.90
2023-01-20T18:17:22.832Z,12.70
2023-01-20T18:19:50.580Z,10.77
2023-01-20T18:22:18.898Z,11.83
2023-01-20T18:24:47.929Z,11.00
2023-01-20T18:27:15.595Z,10.60
2023-01-20T18:29:43.356Z,13.10
2023-01-20T18:32:11.140Z,12.20
2023-01-20T18:34:39.013Z,15.93
2023-01-20T18:37:06.847Z,13.60
2023-01-20T18:39:36.649Z,13.80
2023-01-20T18:42:05.910Z,14.43
2023-01-20T18:44:33.685Z,11.97
2023-01-20T18:47:01.353Z,13.40
2023-01-20T18:49:29.141Z,13.63
2023-01-20T18:51:56.818Z,15.43
2023-01-20T18:54:25.772Z,14.83
2023-01-20T18:56:53.665Z,14.00
2023-01-20T18:59:22.755Z,15.07
2023-01-20T19:01:50.856Z,13.70
2023-01-20T19:04:18.636Z,23.13
2023-01-20T19:06:46.621Z,15.57
2023-01-20T19:09:15.755Z,16.20
2023-01-20T19:11:43.491Z,16.73
2023-01-20T19:14:13.557Z,15.70
2023-01-20T19:16:45.404Z,14.20
2023-01-20T19:19:13.968Z,11.90
2023-01-20T19:21:41.764Z,13.30
2023-01-20T19:24:11.920Z,14.33
2023-01-20T19:26:39.978Z,15.20
2023-01-20T19:29:11.514Z,14.57
2023-01-20T19:31:40.694Z,13.03
2023-01-20T19:34:10.476Z,11.30
2023-01-20T19:36:38.407Z,13.10
2023-01-20T19:39:06.754Z,13.17
2023-01-20T19:41:36.072Z,13.40
2023-01-20T19:44:06.661Z,14.80
2023-01-20T19:46:36.369Z,12.83
2023-01-20T19:49:04.355Z,13.67
2023-01-20T19:51:33.890Z,10.10
2023-01-20T19:54:02.393Z,14.17
2023-01-20T19:56:31.842Z,15.87
2023-01-20T19:59:01.068Z,10.80
2023-01-20T20:01:31.673Z,12.93
2023-01-20T20:04:00.464Z,15.90
2023-01-20T20:06:30.832Z,14.50
2023-01-20T20:09:01.743Z,14.13
2023-01-20T20:11:30.191Z,14.63
2023-01-20T20:13:59.357Z,15.47
2023-01-20T20:16:28.871Z,13.57
2023-01-20T20:18:58.135Z,14.03
2023-01-20T20:21:27.166Z,13.20
2023-01-20T20:23:57.394Z,15.47
2023-01-20T20:26:28.616Z,17.07
2023-01-20T20:28:57.582Z,15.80
2023-01-20T20:31:28.925Z,15.03
2023-01-20T20:33:57.041Z,15.57
2023-01-20T20:36:25.041Z,16.83
2023-01-20T20:38:53.914Z,14.30
2023-01-20T20:41:22.332Z,13.67
2023-01-20T20:43:51.368Z,19.20
2023-01-20T20:46:19.130Z,16.47
2023-01-20T20:48:46.878Z,14.23
2023-01-20T20:51:16.104Z,14.93
2023-01-20T20:53:44.564Z,15.33
2023-01-20T20:56:14.144Z,17.83
2023-01-20T20:58:55.558Z,14.37
2023-01-20T21:01:30.719Z,13.83
2023-01-20T21:04:00.548Z,17.33
2023-01-20T21:06:29.640Z,16.53
2023-01-20T21:09:00.149Z,14.67
2023-01-20T21:11:28.100Z,17.43
2023-01-20T21:13:55.875Z,14.90
2023-01-20T21:16:24.493Z,19.63
2023-01-20T21:18:56.138Z,15.13
2023-01-20T21:21:25.070Z,16.20
2023-01-20T21:23:54.454Z,18.43
2023-01-20T21:26:22.925Z,16.20
2023-01-20T21:28:50.897Z,18.53
2023-01-20T21:31:21.349Z,18.20
2023-01-20T21:33:54.664Z,14.63
2023-01-20T21:36:23.140Z,18.13
2023-01-20T21:38:51.404Z,13.90
2023-01-20T21:41:19.643Z,13.63
2023-01-20T21:44:06.199Z,13.60
2023-01-20T21:46:38.473Z,15.40
2023-01-20T21:49:26.368Z,15.23
2023-01-20T21:52:11.985Z,16.10
2023-01-20T21:54:41.540Z,15.70
2023-01-20T21:57:09.928Z,13.77
2023-01-20T21:59:37.779Z,14.83
2023-01-20T22:02:05.936Z,14.80
2023-01-20T22:04:35.084Z,14.73
2023-01-20T22:07:02.870Z,18.43
2023-01-20T22:09:30.844Z,14.80
2023-01-20T22:11:58.666Z,15.33
2023-01-20T22:14:26.449Z,12.80
2023-01-20T22:16:54.217Z,15.00
2023-01-20T22:19:21.906Z,15.97
2023-01-20T22:21:51.029Z,19.10
2023-01-20T22:24:19.184Z,15.63
2023-01-20T22:26:48.967Z,15.43
2023-01-20T22:29:16.896Z,15.60
2023-01-20T22:31:44.675Z,14.80
2023-01-20T22:34:12.761Z,15.43
2023-01-20T22:36:43.384Z,13.80
2023-01-20T22:39:13.911Z,13.70
2023-01-20T22:41:42.288Z,17.43
2023-01-20T22:44:10.271Z,18.13
2023-01-20T22:46:38.019Z,19.57
2023-01-20T22:49:06.041Z,17.63
2023-01-20T22:51:33.726Z,40.93
2023-01-20T22:54:02.308Z,17.07
2023-01-20T22:56:33.125Z,20.40
2023-01-20T22:59:01.442Z,16.20
2023-01-20T23:01:31.272Z,18.30
2023-01-20T23:04:01.422Z,17.33
2023-01-20T23:06:32.521Z,17.93
2023-01-20T23:09:00.800Z,18.33
2023-01-20T23:11:30.274Z,17.10
2023-01-20T23:14:00.187Z,16.83
2023-01-20T23:16:28.060Z,17.30
2023-01-20T23:18:55.870Z,15.87
2023-01-20T23:21:24.355Z,17.87
2023-01-20T23:23:54.539Z,19.23
2023-01-20T23:26:24.180Z,18.50
2023-01-20T23:28:53.571Z,16.70
2023-01-20T23:31:24.111Z,14.23
2023-01-20T23:33:53.992Z,19.83
2023-01-20T23:36:23.909Z,17.90
2023-01-20T23:38:53.520Z,14.60
2023-01-20T23:41:21.384Z,16.67
2023-01-20T23:43:49.183Z,18.67
2023-01-20T23:46:16.930Z,18.67
2023-01-20T23:48:47.627Z,16.50
2023-01-20T23:51:15.716Z,16.73
2023-01-20T23:53:43.455Z,17.40
2023-01-20T23:56:14.733Z,14.43
2023-01-20T23:58:43.017Z,18.13
